sensor_id;sensor_type;location;lat;lon;timestamp;P1;durP1;ratioP1;P2;durP2;ratioP2
57325;SDS011;43161;50.950;18.224;2024-02-28T00:00:57;113.30;;;44.80;;
57325;SDS011;43161;50.950;18.224;2024-02-28T00:03:22;109.50;;;44.20;;
57325;SDS011;43161;50.950;18.224;2024-02-28T00:05:49;102.70;;;41.10;;
57325;SDS011;43161;50.950;18.224;2024-02-28T00:08:15;108.90;;;42.70;;
57325;SDS011;43161;50.950;18.224;2024-02-28T00:10:42;102.40;;;41.30;;
57325;SDS011;43161;50.950;18.224;2024-02-28T00:13:07;117.60;;;51.10;;
57325;SDS011;43161;50.950;18.224;2024-02-28T00:15:33;98.40;;;40.20;;
57325;SDS011;43161;50.950;18.224;2024-02-28T00:17:58;106.00;;;40.50;;
57325;SDS011;43161;50.950;18.224;2024-02-28T00:20:24;97.60;;;43.00;;
57325;SDS011;43161;50.950;18.224;2024-02-28T00:22:52;102.10;;;41.70;;
57325;SDS011;43161;50.950;18.224;2024-02-28T00:25:18;112.90;;;46.00;;
57325;SDS011;43161;50.950;18.224;2024-02-28T00:27:43;118.00;;;49.90;;
57325;SDS011;43161;50.950;18.224;2024-02-28T00:30:09;95.50;;;38.30;;
57325;SDS011;43161;50.950;18.224;2024-02-28T00:32:35;96.40;;;39.90;;
57325;SDS011;43161;50.950;18.224;2024-02-28T00:35:00;99.30;;;37.80;;
57325;SDS011;43161;50.950;18.224;2024-02-28T00:37:26;96.20;;;38.80;;
57325;SDS011;43161;50.950;18.224;2024-02-28T00:39:51;98.20;;;39.70;;
57325;SDS011;43161;50.950;18.224;2024-02-28T00:42:17;101.80;;;39.90;;
57325;SDS011;43161;50.950;18.224;2024-02-28T00:44:42;90.80;;;37.30;;
57325;SDS011;43161;50.950;18.224;2024-02-28T00:47:08;98.00;;;39.00;;
57325;SDS011;43161;50.950;18.224;2024-02-28T00:49:34;111.60;;;45.90;;
57325;SDS011;43161;50.950;18.224;2024-02-28T00:52:00;108.40;;;43.60;;
57325;SDS011;43161;50.950;18.224;2024-02-28T00:54:26;104.20;;;39.90;;
57325;SDS011;43161;50.950;18.224;2024-02-28T00:56:51;103.30;;;40.10;;
57325;SDS011;43161;50.950;18.224;2024-02-28T00:59:16;112.70;;;46.90;;
57325;SDS011;43161;50.950;18.224;2024-02-28T01:01:42;112.20;;;44.40;;
57325;SDS011;43161;50.950;18.224;2024-02-28T01:04:07;102.50;;;40.90;;
57325;SDS011;43161;50.950;18.224;2024-02-28T01:06:33;107.10;;;43.10;;
57325;SDS011;43161;50.950;18.224;2024-02-28T01:08:58;104.40;;;41.10;;
57325;SDS011;43161;50.950;18.224;2024-02-28T01:11:24;102.30;;;40.60;;
57325;SDS011;43161;50.950;18.224;2024-02-28T01:13:50;104.50;;;42.00;;
57325;SDS011;43161;50.950;18.224;2024-02-28T01:16:16;103.70;;;40.70;;
57325;SDS011;43161;50.950;18.224;2024-02-28T01:18:42;111.10;;;48.00;;
57325;SDS011;43161;50.950;18.224;2024-02-28T01:21:07;113.20;;;46.20;;
57325;SDS011;43161;50.950;18.224;2024-02-28T01:23:33;106.00;;;43.30;;
57325;SDS011;43161;50.950;18.224;2024-02-28T01:25:58;105.20;;;40.60;;
57325;SDS011;43161;50.950;18.224;2024-02-28T01:28:24;109.00;;;43.00;;
57325;SDS011;43161;50.950;18.224;2024-02-28T01:30:49;110.70;;;44.40;;
57325;SDS011;43161;50.950;18.224;2024-02-28T01:33:15;120.40;;;52.80;;
57325;SDS011;43161;50.950;18.224;2024-02-28T01:35:41;118.20;;;52.30;;
57325;SDS011;43161;50.950;18.224;2024-02-28T01:38:06;115.50;;;50.50;;
57325;SDS011;43161;50.950;18.224;2024-02-28T01:40:32;106.40;;;42.90;;
57325;SDS011;43161;50.950;18.224;2024-02-28T01:43:03;112.00;;;44.50;;
57325;SDS011;43161;50.950;18.224;2024-02-28T01:45:31;109.80;;;43.60;;
57325;SDS011;43161;50.950;18.224;2024-02-28T01:47:57;109.80;;;44.90;;
57325;SDS011;43161;50.950;18.224;2024-02-28T01:50:23;111.30;;;44.40;;
57325;SDS011;43161;50.950;18.224;2024-02-28T01:52:48;109.70;;;44.00;;
57325;SDS011;43161;50.950;18.224;2024-02-28T01:55:14;129.20;;;56.30;;
57325;SDS011;43161;50.950;18.224;2024-02-28T01:57:40;104.50;;;41.40;;
57325;SDS011;43161;50.950;18.224;2024-02-28T02:00:06;100.60;;;41.80;;
57325;SDS011;43161;50.950;18.224;2024-02-28T02:02:33;100.10;;;37.90;;
57325;SDS011;43161;50.950;18.224;2024-02-28T02:04:59;96.10;;;38.70;;
57325;SDS011;43161;50.950;18.224;2024-02-28T02:07:25;99.60;;;39.20;;
57325;SDS011;43161;50.950;18.224;2024-02-28T02:09:51;98.40;;;39.70;;
57325;SDS011;43161;50.950;18.224;2024-02-28T02:12:17;101.20;;;40.10;;
57325;SDS011;43161;50.950;18.224;2024-02-28T02:14:47;101.70;;;39.00;;
57325;SDS011;43161;50.950;18.224;2024-02-28T02:17:13;103.00;;;41.10;;
57325;SDS011;43161;50.950;18.224;2024-02-28T02:19:38;92.50;;;37.50;;
57325;SDS011;43161;50.950;18.224;2024-02-28T02:22:04;93.00;;;37.30;;
57325;SDS011;43161;50.950;18.224;2024-02-28T02:24:30;91.00;;;35.90;;
57325;SDS011;43161;50.950;18.224;2024-02-28T02:26:58;85.60;;;35.30;;
57325;SDS011;43161;50.950;18.224;2024-02-28T02:29:23;95.80;;;36.20;;
57325;SDS011;43161;50.950;18.224;2024-02-28T02:31:49;89.10;;;34.70;;
57325;SDS011;43161;50.950;18.224;2024-02-28T02:34:14;89.70;;;32.90;;
57325;SDS011;43161;50.950;18.224;2024-02-28T02:36:40;82.80;;;31.30;;
57325;SDS011;43161;50.950;18.224;2024-02-28T02:39:05;77.80;;;31.00;;
57325;SDS011;43161;50.950;18.224;2024-02-28T02:41:33;83.80;;;31.60;;
57325;SDS011;43161;50.950;18.224;2024-02-28T02:43:59;77.60;;;30.10;;
57325;SDS011;43161;50.950;18.224;2024-02-28T02:46:24;72.90;;;29.50;;
57325;SDS011;43161;50.950;18.224;2024-02-28T02:48:50;77.00;;;30.20;;
57325;SDS011;43161;50.950;18.224;2024-02-28T02:51:15;75.80;;;29.90;;
57325;SDS011;43161;50.950;18.224;2024-02-28T02:53:43;70.90;;;28.30;;
57325;SDS011;43161;50.950;18.224;2024-02-28T02:56:08;67.50;;;27.90;;
57325;SDS011;43161;50.950;18.224;2024-02-28T02:58:34;69.10;;;28.70;;
57325;SDS011;43161;50.950;18.224;2024-02-28T03:00:59;66.30;;;26.80;;
57325;SDS011;43161;50.950;18.224;2024-02-28T03:03:25;67.30;;;26.20;;
57325;SDS011;43161;50.950;18.224;2024-02-28T03:05:50;62.80;;;25.80;;
57325;SDS011;43161;50.950;18.224;2024-02-28T03:08:15;63.90;;;25.50;;
57325;SDS011;43161;50.950;18.224;2024-02-28T03:10:41;61.00;;;25.00;;
57325;SDS011;43161;50.950;18.224;2024-02-28T03:13:07;56.90;;;22.50;;
57325;SDS011;43161;50.950;18.224;2024-02-28T03:15:33;56.50;;;23.00;;
57325;SDS011;43161;50.950;18.224;2024-02-28T03:17:59;54.60;;;23.00;;
57325;SDS011;43161;50.950;18.224;2024-02-28T03:20:25;53.50;;;24.30;;
57325;SDS011;43161;50.950;18.224;2024-02-28T03:22:51;54.80;;;21.90;;
57325;SDS011;43161;50.950;18.224;2024-02-28T03:25:17;55.10;;;22.40;;
57325;SDS011;43161;50.950;18.224;2024-02-28T03:27:42;60.70;;;26.70;;
57325;SDS011;43161;50.950;18.224;2024-02-28T03:30:08;63.50;;;27.40;;
57325;SDS011;43161;50.950;18.224;2024-02-28T03:32:33;54.70;;;22.40;;
57325;SDS011;43161;50.950;18.224;2024-02-28T03:34:59;58.80;;;23.20;;
57325;SDS011;43161;50.950;18.224;2024-02-28T03:37:25;56.90;;;23.00;;
57325;SDS011;43161;50.950;18.224;2024-02-28T03:39:51;51.20;;;21.90;;
57325;SDS011;43161;50.950;18.224;2024-02-28T03:42:16;57.10;;;22.00;;
57325;SDS011;43161;50.950;18.224;2024-02-28T03:44:42;55.50;;;25.10;;
57325;SDS011;43161;50.950;18.224;2024-02-28T03:47:08;54.90;;;22.60;;
57325;SDS011;43161;50.950;18.224;2024-02-28T03:49:34;54.40;;;22.70;;
57325;SDS011;43161;50.950;18.224;2024-02-28T03:52:00;57.40;;;22.20;;
57325;SDS011;43161;50.950;18.224;2024-02-28T03:54:27;62.70;;;24.20;;
57325;SDS011;43161;50.950;18.224;2024-02-28T03:56:52;59.90;;;23.30;;
57325;SDS011;43161;50.950;18.224;2024-02-28T03:59:18;67.00;;;24.40;;
57325;SDS011;43161;50.950;18.224;2024-02-28T04:01:44;65.20;;;24.70;;
57325;SDS011;43161;50.950;18.224;2024-02-28T04:04:10;68.70;;;24.20;;
57325;SDS011;43161;50.950;18.224;2024-02-28T04:06:35;69.40;;;25.00;;
57325;SDS011;43161;50.950;18.224;2024-02-28T04:09:01;67.50;;;25.50;;
57325;SDS011;43161;50.950;18.224;2024-02-28T04:11:29;67.70;;;26.00;;
57325;SDS011;43161;50.950;18.224;2024-02-28T04:13:54;75.80;;;27.40;;
57325;SDS011;43161;50.950;18.224;2024-02-28T04:16:20;77.30;;;27.50;;
57325;SDS011;43161;50.950;18.224;2024-02-28T04:18:45;64.20;;;25.00;;
57325;SDS011;43161;50.950;18.224;2024-02-28T04:21:11;70.90;;;27.70;;
57325;SDS011;43161;50.950;18.224;2024-02-28T04:23:36;71.50;;;28.40;;
57325;SDS011;43161;50.950;18.224;2024-02-28T04:26:03;90.10;;;30.30;;
57325;SDS011;43161;50.950;18.224;2024-02-28T04:28:29;84.10;;;29.80;;
57325;SDS011;43161;50.950;18.224;2024-02-28T04:30:55;80.10;;;29.70;;
57325;SDS011;43161;50.950;18.224;2024-02-28T04:33:20;88.60;;;31.70;;
57325;SDS011;43161;50.950;18.224;2024-02-28T04:35:46;90.60;;;31.80;;
57325;SDS011;43161;50.950;18.224;2024-02-28T04:38:11;89.30;;;31.90;;
57325;SDS011;43161;50.950;18.224;2024-02-28T04:40:37;94.70;;;33.70;;
57325;SDS011;43161;50.950;18.224;2024-02-28T04:43:03;94.20;;;34.20;;
57325;SDS011;43161;50.950;18.224;2024-02-28T04:45:29;97.20;;;32.00;;
57325;SDS011;43161;50.950;18.224;2024-02-28T04:47:54;96.90;;;32.00;;
57325;SDS011;43161;50.950;18.224;2024-02-28T04:50:22;85.50;;;31.40;;
57325;SDS011;43161;50.950;18.224;2024-02-28T04:52:47;101.20;;;33.90;;
57325;SDS011;43161;50.950;18.224;2024-02-28T04:55:13;91.30;;;32.30;;
57325;SDS011;43161;50.950;18.224;2024-02-28T04:57:38;95.20;;;33.00;;
57325;SDS011;43161;50.950;18.224;2024-02-28T05:06:30;99.60;;;36.00;;
57325;SDS011;43161;50.950;18.224;2024-02-28T05:08:55;99.80;;;32.70;;
57325;SDS011;43161;50.950;18.224;2024-02-28T05:11:20;93.40;;;32.20;;
57325;SDS011;43161;50.950;18.224;2024-02-28T05:13:46;90.90;;;32.20;;
57325;SDS011;43161;50.950;18.224;2024-02-28T05:16:12;97.50;;;33.20;;
57325;SDS011;43161;50.950;18.224;2024-02-28T05:18:38;92.30;;;32.20;;
57325;SDS011;43161;50.950;18.224;2024-02-28T05:21:04;121.30;;;51.10;;
57325;SDS011;43161;50.950;18.224;2024-02-28T05:23:29;108.00;;;38.70;;
57325;SDS011;43161;50.950;18.224;2024-02-28T05:25:56;303.10;;;111.40;;
57325;SDS011;43161;50.950;18.224;2024-02-28T05:28:22;385.30;;;146.90;;
57325;SDS011;43161;50.950;18.224;2024-02-28T05:30:49;88.70;;;32.50;;
57325;SDS011;43161;50.950;18.224;2024-02-28T05:33:15;86.00;;;30.90;;
57325;SDS011;43161;50.950;18.224;2024-02-28T05:35:40;94.00;;;34.80;;
57325;SDS011;43161;50.950;18.224;2024-02-28T05:38:06;73.30;;;27.20;;
57325;SDS011;43161;50.950;18.224;2024-02-28T05:40:31;79.90;;;29.50;;
57325;SDS011;43161;50.950;18.224;2024-02-28T05:42:57;69.00;;;27.20;;
57325;SDS011;43161;50.950;18.224;2024-02-28T05:45:22;71.80;;;26.10;;
57325;SDS011;43161;50.950;18.224;2024-02-28T05:47:48;66.00;;;25.80;;
57325;SDS011;43161;50.950;18.224;2024-02-28T05:50:14;73.20;;;27.40;;
57325;SDS011;43161;50.950;18.224;2024-02-28T05:52:42;77.80;;;33.60;;
57325;SDS011;43161;50.950;18.224;2024-02-28T05:55:08;94.00;;;37.80;;
57325;SDS011;43161;50.950;18.224;2024-02-28T05:57:33;68.80;;;26.40;;
57325;SDS011;43161;50.950;18.224;2024-02-28T05:59:59;67.20;;;25.50;;
57325;SDS011;43161;50.950;18.224;2024-02-28T06:02:25;64.30;;;26.00;;
57325;SDS011;43161;50.950;18.224;2024-02-28T06:04:50;69.40;;;26.70;;
57325;SDS011;43161;50.950;18.224;2024-02-28T06:07:16;75.40;;;33.10;;
57325;SDS011;43161;50.950;18.224;2024-02-28T06:09:41;76.10;;;36.80;;
57325;SDS011;43161;50.950;18.224;2024-02-28T06:12:07;66.00;;;26.70;;
57325;SDS011;43161;50.950;18.224;2024-02-28T06:14:32;58.60;;;22.70;;
57325;SDS011;43161;50.950;18.224;2024-02-28T06:16:58;67.40;;;27.30;;
57325;SDS011;43161;50.950;18.224;2024-02-28T06:19:23;64.20;;;25.60;;
57325;SDS011;43161;50.950;18.224;2024-02-28T06:21:49;60.00;;;24.00;;
57325;SDS011;43161;50.950;18.224;2024-02-28T06:24:15;144.50;;;51.90;;
57325;SDS011;43161;50.950;18.224;2024-02-28T06:26:40;344.60;;;110.00;;
57325;SDS011;43161;50.950;18.224;2024-02-28T06:29:07;170.20;;;57.20;;
57325;SDS011;43161;50.950;18.224;2024-02-28T06:31:33;61.30;;;25.90;;
57325;SDS011;43161;50.950;18.224;2024-02-28T06:33:58;395.90;;;151.10;;
57325;SDS011;43161;50.950;18.224;2024-02-28T06:36:24;222.70;;;82.70;;
57325;SDS011;43161;50.950;18.224;2024-02-28T06:38:50;98.10;;;40.40;;
57325;SDS011;43161;50.950;18.224;2024-02-28T06:41:15;79.30;;;42.60;;
57325;SDS011;43161;50.950;18.224;2024-02-28T06:43:42;64.20;;;29.40;;
57325;SDS011;43161;50.950;18.224;2024-02-28T06:46:08;89.40;;;44.50;;
57325;SDS011;43161;50.950;18.224;2024-02-28T06:48:33;69.20;;;34.50;;
57325;SDS011;43161;50.950;18.224;2024-02-28T06:50:59;63.00;;;31.60;;
57325;SDS011;43161;50.950;18.224;2024-02-28T06:53:25;88.30;;;51.70;;
57325;SDS011;43161;50.950;18.224;2024-02-28T06:55:51;63.80;;;31.50;;
57325;SDS011;43161;50.950;18.224;2024-02-28T06:58:17;66.40;;;34.30;;
57325;SDS011;43161;50.950;18.224;2024-02-28T07:00:42;51.30;;;23.00;;
57325;SDS011;43161;50.950;18.224;2024-02-28T07:03:08;64.10;;;33.30;;
57325;SDS011;43161;50.950;18.224;2024-02-28T07:05:34;56.50;;;27.00;;
57325;SDS011;43161;50.950;18.224;2024-02-28T07:08:00;50.00;;;22.70;;
57325;SDS011;43161;50.950;18.224;2024-02-28T07:10:26;63.50;;;34.10;;
57325;SDS011;43161;50.950;18.224;2024-02-28T07:12:52;51.10;;;21.50;;
57325;SDS011;43161;50.950;18.224;2024-02-28T07:15:17;47.10;;;19.40;;
57325;SDS011;43161;50.950;18.224;2024-02-28T07:17:45;55.80;;;28.80;;
57325;SDS011;43161;50.950;18.224;2024-02-28T07:20:11;45.60;;;20.70;;
57325;SDS011;43161;50.950;18.224;2024-02-28T07:22:37;57.50;;;27.30;;
57325;SDS011;43161;50.950;18.224;2024-02-28T07:25:03;47.90;;;20.30;;
57325;SDS011;43161;50.950;18.224;2024-02-28T07:27:30;46.40;;;22.70;;
57325;SDS011;43161;50.950;18.224;2024-02-28T07:29:55;50.40;;;22.00;;
57325;SDS011;43161;50.950;18.224;2024-02-28T07:32:21;50.90;;;21.30;;
57325;SDS011;43161;50.950;18.224;2024-02-28T07:34:46;66.00;;;31.30;;
57325;SDS011;43161;50.950;18.224;2024-02-28T07:37:12;50.20;;;22.50;;
57325;SDS011;43161;50.950;18.224;2024-02-28T07:39:37;45.40;;;20.20;;
57325;SDS011;43161;50.950;18.224;2024-02-28T07:42:03;58.40;;;26.80;;
57325;SDS011;43161;50.950;18.224;2024-02-28T07:44:29;42.00;;;19.00;;
57325;SDS011;43161;50.950;18.224;2024-02-28T07:46:58;51.40;;;26.30;;
57325;SDS011;43161;50.950;18.224;2024-02-28T07:49:24;44.20;;;20.40;;
57325;SDS011;43161;50.950;18.224;2024-02-28T07:51:51;48.80;;;22.90;;
57325;SDS011;43161;50.950;18.224;2024-02-28T07:54:16;41.50;;;19.80;;
57325;SDS011;43161;50.950;18.224;2024-02-28T07:56:43;42.00;;;20.10;;
57325;SDS011;43161;50.950;18.224;2024-02-28T07:59:09;41.70;;;18.50;;
57325;SDS011;43161;50.950;18.224;2024-02-28T08:01:34;66.60;;;33.60;;
57325;SDS011;43161;50.950;18.224;2024-02-28T08:04:01;42.20;;;19.20;;
57325;SDS011;43161;50.950;18.224;2024-02-28T08:06:27;44.60;;;19.80;;
57325;SDS011;43161;50.950;18.224;2024-02-28T08:08:52;57.20;;;29.50;;
57325;SDS011;43161;50.950;18.224;2024-02-28T08:11:18;61.60;;;34.20;;
57325;SDS011;43161;50.950;18.224;2024-02-28T08:13:44;50.30;;;24.00;;
57325;SDS011;43161;50.950;18.224;2024-02-28T08:16:10;114.40;;;68.10;;
57325;SDS011;43161;50.950;18.224;2024-02-28T08:18:35;45.10;;;20.60;;
57325;SDS011;43161;50.950;18.224;2024-02-28T08:21:01;58.20;;;28.30;;
57325;SDS011;43161;50.950;18.224;2024-02-28T08:23:29;69.60;;;36.80;;
57325;SDS011;43161;50.950;18.224;2024-02-28T08:25:56;75.60;;;39.50;;
57325;SDS011;43161;50.950;18.224;2024-02-28T08:28:21;66.20;;;34.90;;
57325;SDS011;43161;50.950;18.224;2024-02-28T08:30:47;68.70;;;36.10;;
57325;SDS011;43161;50.950;18.224;2024-02-28T08:33:14;73.40;;;40.40;;
57325;SDS011;43161;50.950;18.224;2024-02-28T08:35:39;63.20;;;32.20;;
57325;SDS011;43161;50.950;18.224;2024-02-28T08:38:05;46.50;;;21.40;;
57325;SDS011;43161;50.950;18.224;2024-02-28T08:40:30;48.40;;;25.50;;
57325;SDS011;43161;50.950;18.224;2024-02-28T08:42:56;50.00;;;24.80;;
57325;SDS011;43161;50.950;18.224;2024-02-28T08:45:22;49.50;;;24.60;;
57325;SDS011;43161;50.950;18.224;2024-02-28T08:47:48;49.60;;;24.50;;
57325;SDS011;43161;50.950;18.224;2024-02-28T08:50:14;56.00;;;28.50;;
57325;SDS011;43161;50.950;18.224;2024-02-28T08:52:39;42.80;;;19.40;;
57325;SDS011;43161;50.950;18.224;2024-02-28T08:55:05;54.20;;;25.40;;
57325;SDS011;43161;50.950;18.224;2024-02-28T08:57:31;78.80;;;46.20;;
57325;SDS011;43161;50.950;18.224;2024-02-28T08:59:56;43.00;;;20.30;;
57325;SDS011;43161;50.950;18.224;2024-02-28T09:02:22;40.90;;;18.80;;
57325;SDS011;43161;50.950;18.224;2024-02-28T09:04:47;41.10;;;19.70;;
57325;SDS011;43161;50.950;18.224;2024-02-28T09:07:17;60.10;;;32.10;;
57325;SDS011;43161;50.950;18.224;2024-02-28T09:09:46;41.50;;;20.30;;
57325;SDS011;43161;50.950;18.224;2024-02-28T09:12:12;43.80;;;22.00;;
57325;SDS011;43161;50.950;18.224;2024-02-28T09:14:38;40.10;;;19.30;;
57325;SDS011;43161;50.950;18.224;2024-02-28T09:17:04;38.70;;;18.20;;
57325;SDS011;43161;50.950;18.224;2024-02-28T09:19:33;36.10;;;17.70;;
57325;SDS011;43161;50.950;18.224;2024-02-28T09:21:59;35.80;;;17.10;;
57325;SDS011;43161;50.950;18.224;2024-02-28T09:24:25;36.20;;;17.30;;
57325;SDS011;43161;50.950;18.224;2024-02-28T09:26:51;35.00;;;17.10;;
57325;SDS011;43161;50.950;18.224;2024-02-28T09:29:17;36.40;;;17.60;;
57325;SDS011;43161;50.950;18.224;2024-02-28T09:31:42;38.60;;;17.80;;
57325;SDS011;43161;50.950;18.224;2024-02-28T09:34:08;38.40;;;17.90;;
57325;SDS011;43161;50.950;18.224;2024-02-28T09:36:41;38.10;;;17.90;;
57325;SDS011;43161;50.950;18.224;2024-02-28T09:39:08;40.70;;;20.20;;
57325;SDS011;43161;50.950;18.224;2024-02-28T09:41:33;42.90;;;19.40;;
57325;SDS011;43161;50.950;18.224;2024-02-28T09:43:59;43.30;;;18.90;;
57325;SDS011;43161;50.950;18.224;2024-02-28T09:46:25;44.80;;;19.40;;
57325;SDS011;43161;50.950;18.224;2024-02-28T09:48:51;45.60;;;21.90;;
57325;SDS011;43161;50.950;18.224;2024-02-28T09:51:18;46.40;;;20.40;;
57325;SDS011;43161;50.950;18.224;2024-02-28T09:53:43;46.90;;;20.70;;
57325;SDS011;43161;50.950;18.224;2024-02-28T09:56:09;46.10;;;21.60;;
57325;SDS011;43161;50.950;18.224;2024-02-28T09:58:35;46.70;;;21.30;;
57325;SDS011;43161;50.950;18.224;2024-02-28T10:01:04;43.20;;;20.50;;
57325;SDS011;43161;50.950;18.224;2024-02-28T10:03:30;45.10;;;21.30;;
57325;SDS011;43161;50.950;18.224;2024-02-28T10:05:55;46.90;;;21.40;;
57325;SDS011;43161;50.950;18.224;2024-02-28T10:08:21;52.40;;;24.10;;
57325;SDS011;43161;50.950;18.224;2024-02-28T10:10:47;48.30;;;21.60;;
57325;SDS011;43161;50.950;18.224;2024-02-28T10:13:17;50.00;;;21.70;;
57325;SDS011;43161;50.950;18.224;2024-02-28T10:15:42;53.50;;;23.40;;
57325;SDS011;43161;50.950;18.224;2024-02-28T10:18:08;58.10;;;28.70;;
57325;SDS011;43161;50.950;18.224;2024-02-28T10:20:34;52.80;;;23.30;;
57325;SDS011;43161;50.950;18.224;2024-02-28T10:23:03;52.10;;;22.20;;
57325;SDS011;43161;50.950;18.224;2024-02-28T10:25:30;51.70;;;21.70;;
57325;SDS011;43161;50.950;18.224;2024-02-28T10:28:00;53.20;;;22.10;;
57325;SDS011;43161;50.950;18.224;2024-02-28T10:30:26;52.70;;;23.00;;
57325;SDS011;43161;50.950;18.224;2024-02-28T10:32:52;52.70;;;22.40;;
57325;SDS011;43161;50.950;18.224;2024-02-28T10:35:18;49.40;;;21.10;;
57325;SDS011;43161;50.950;18.224;2024-02-28T10:37:45;47.00;;;20.90;;
57325;SDS011;43161;50.950;18.224;2024-02-28T10:40:12;45.50;;;19.30;;
57325;SDS011;43161;50.950;18.224;2024-02-28T10:42:38;45.90;;;20.10;;
57325;SDS011;43161;50.950;18.224;2024-02-28T10:45:07;49.30;;;22.80;;
57325;SDS011;43161;50.950;18.224;2024-02-28T10:47:37;51.50;;;20.70;;
57325;SDS011;43161;50.950;18.224;2024-02-28T10:50:04;45.00;;;19.20;;
57325;SDS011;43161;50.950;18.224;2024-02-28T10:52:30;41.80;;;19.50;;
57325;SDS011;43161;50.950;18.224;2024-02-28T10:54:59;57.90;;;27.50;;
57325;SDS011;43161;50.950;18.224;2024-02-28T10:57:26;50.60;;;23.40;;
57325;SDS011;43161;50.950;18.224;2024-02-28T10:59:51;49.70;;;20.70;;
57325;SDS011;43161;50.950;18.224;2024-02-28T11:02:18;47.40;;;20.50;;
57325;SDS011;43161;50.950;18.224;2024-02-28T11:04:43;45.70;;;20.70;;
57325;SDS011;43161;50.950;18.224;2024-02-28T11:07:09;45.90;;;20.60;;
57325;SDS011;43161;50.950;18.224;2024-02-28T11:09:35;45.70;;;21.00;;
57325;SDS011;43161;50.950;18.224;2024-02-28T11:12:00;47.70;;;20.70;;
57325;SDS011;43161;50.950;18.224;2024-02-28T11:14:29;46.60;;;20.30;;
57325;SDS011;43161;50.950;18.224;2024-02-28T11:19:31;46.70;;;19.40;;
57325;SDS011;43161;50.950;18.224;2024-02-28T11:22:00;42.60;;;19.10;;
57325;SDS011;43161;50.950;18.224;2024-02-28T11:24:30;52.10;;;20.50;;
57325;SDS011;43161;50.950;18.224;2024-02-28T11:26:56;46.50;;;19.90;;
57325;SDS011;43161;50.950;18.224;2024-02-28T11:29:25;44.50;;;19.70;;
57325;SDS011;43161;50.950;18.224;2024-02-28T11:31:52;48.30;;;21.50;;
57325;SDS011;43161;50.950;18.224;2024-02-28T11:34:19;48.50;;;20.70;;
57325;SDS011;43161;50.950;18.224;2024-02-28T11:36:49;51.90;;;20.30;;
57325;SDS011;43161;50.950;18.224;2024-02-28T11:39:16;47.40;;;19.70;;
57325;SDS011;43161;50.950;18.224;2024-02-28T11:41:42;50.70;;;24.10;;
57325;SDS011;43161;50.950;18.224;2024-02-28T11:44:12;49.00;;;21.80;;
57325;SDS011;43161;50.950;18.224;2024-02-28T11:46:42;55.10;;;21.40;;
57325;SDS011;43161;50.950;18.224;2024-02-28T11:49:08;50.10;;;21.30;;
57325;SDS011;43161;50.950;18.224;2024-02-28T11:51:34;51.60;;;22.00;;
57325;SDS011;43161;50.950;18.224;2024-02-28T11:54:01;55.90;;;22.80;;
57325;SDS011;43161;50.950;18.224;2024-02-28T11:56:27;52.10;;;21.00;;
57325;SDS011;43161;50.950;18.224;2024-02-28T11:58:53;63.50;;;24.20;;
57325;SDS011;43161;50.950;18.224;2024-02-28T12:04:02;52.60;;;22.10;;
57325;SDS011;43161;50.950;18.224;2024-02-28T12:06:29;63.10;;;26.30;;
57325;SDS011;43161;50.950;18.224;2024-02-28T12:08:55;64.80;;;25.10;;
57325;SDS011;43161;50.950;18.224;2024-02-28T12:11:20;65.10;;;26.30;;
57325;SDS011;43161;50.950;18.224;2024-02-28T12:13:46;68.60;;;27.80;;
57325;SDS011;43161;50.950;18.224;2024-02-28T12:16:11;75.30;;;29.30;;
57325;SDS011;43161;50.950;18.224;2024-02-28T12:18:37;74.80;;;31.40;;
57325;SDS011;43161;50.950;18.224;2024-02-28T12:21:02;69.40;;;28.80;;
57325;SDS011;43161;50.950;18.224;2024-02-28T12:23:29;67.40;;;27.00;;
57325;SDS011;43161;50.950;18.224;2024-02-28T12:25:54;69.60;;;27.80;;
57325;SDS011;43161;50.950;18.224;2024-02-28T12:28:20;71.30;;;28.30;;
57325;SDS011;43161;50.950;18.224;2024-02-28T12:30:46;68.80;;;28.50;;
57325;SDS011;43161;50.950;18.224;2024-02-28T12:33:12;71.00;;;28.80;;
57325;SDS011;43161;50.950;18.224;2024-02-28T12:35:38;67.20;;;26.30;;
57325;SDS011;43161;50.950;18.224;2024-02-28T12:38:03;70.60;;;28.60;;
57325;SDS011;43161;50.950;18.224;2024-02-28T12:40:29;72.80;;;28.90;;
57325;SDS011;43161;50.950;18.224;2024-02-28T12:42:54;69.80;;;28.30;;
57325;SDS011;43161;50.950;18.224;2024-02-28T12:45:20;73.50;;;30.10;;
57325;SDS011;43161;50.950;18.224;2024-02-28T12:47:45;86.90;;;37.30;;
57325;SDS011;43161;50.950;18.224;2024-02-28T12:50:11;78.60;;;34.60;;
57325;SDS011;43161;50.950;18.224;2024-02-28T12:52:37;76.60;;;31.90;;
57325;SDS011;43161;50.950;18.224;2024-02-28T12:55:03;75.80;;;29.80;;
57325;SDS011;43161;50.950;18.224;2024-02-28T12:57:29;70.10;;;29.80;;
57325;SDS011;43161;50.950;18.224;2024-02-28T12:59:54;68.20;;;29.90;;
57325;SDS011;43161;50.950;18.224;2024-02-28T13:02:21;67.30;;;27.10;;
57325;SDS011;43161;50.950;18.224;2024-02-28T13:04:47;74.60;;;29.70;;
57325;SDS011;43161;50.950;18.224;2024-02-28T13:07:14;82.80;;;31.60;;
57325;SDS011;43161;50.950;18.224;2024-02-28T13:09:40;74.80;;;30.50;;
57325;SDS011;43161;50.950;18.224;2024-02-28T13:12:07;71.00;;;29.70;;
57325;SDS011;43161;50.950;18.224;2024-02-28T13:14:34;65.90;;;30.10;;
57325;SDS011;43161;50.950;18.224;2024-02-28T13:16:59;70.20;;;29.20;;
57325;SDS011;43161;50.950;18.224;2024-02-28T13:19:25;63.60;;;29.80;;
57325;SDS011;43161;50.950;18.224;2024-02-28T13:21:51;62.80;;;27.60;;
57325;SDS011;43161;50.950;18.224;2024-02-28T13:24:17;60.40;;;26.10;;
57325;SDS011;43161;50.950;18.224;2024-02-28T13:26:42;65.80;;;27.50;;
57325;SDS011;43161;50.950;18.224;2024-02-28T13:29:08;61.50;;;27.60;;
57325;SDS011;43161;50.950;18.224;2024-02-28T13:31:34;55.40;;;25.20;;
57325;SDS011;43161;50.950;18.224;2024-02-28T13:34:00;60.60;;;25.30;;
57325;SDS011;43161;50.950;18.224;2024-02-28T13:36:26;58.10;;;24.90;;
57325;SDS011;43161;50.950;18.224;2024-02-28T13:38:51;55.40;;;25.10;;
57325;SDS011;43161;50.950;18.224;2024-02-28T13:41:17;52.80;;;23.00;;
57325;SDS011;43161;50.950;18.224;2024-02-28T13:43:42;43.90;;;19.90;;
57325;SDS011;43161;50.950;18.224;2024-02-28T13:46:08;45.60;;;19.90;;
57325;SDS011;43161;50.950;18.224;2024-02-28T13:48:35;48.70;;;20.80;;
57325;SDS011;43161;50.950;18.224;2024-02-28T13:51:01;55.20;;;23.80;;
57325;SDS011;43161;50.950;18.224;2024-02-28T13:53:27;56.40;;;25.00;;
57325;SDS011;43161;50.950;18.224;2024-02-28T13:55:53;54.10;;;23.50;;
57325;SDS011;43161;50.950;18.224;2024-02-28T13:58:18;46.90;;;21.80;;
57325;SDS011;43161;50.950;18.224;2024-02-28T14:00:44;55.60;;;24.50;;
57325;SDS011;43161;50.950;18.224;2024-02-28T14:03:10;48.60;;;24.40;;
57325;SDS011;43161;50.950;18.224;2024-02-28T14:05:36;45.90;;;21.30;;
57325;SDS011;43161;50.950;18.224;2024-02-28T14:08:02;45.30;;;20.70;;
57325;SDS011;43161;50.950;18.224;2024-02-28T14:10:33;40.80;;;18.30;;